Hickory Corners, Michigan
Current Conditions -  °F | °C
As of 8:53 AM on Monday 26 Jan 2015 (Local Time) from KBTL Reporting Station
Clear Clear  
Wind Chill: 12°   Ceiling: Unl
Heat Index: 12°   Visibility: 10mi
Dew Point:   Wind: 3mph
Humidity: 77%   Direction: 30°NNE
Pressure: 29.95"   Gusts: NA
Location:  42.44°N, 85.38°W
Report Text: KBTL 261353Z 03003KT 10SM CLR M11/M14 A2995 RMK AO2 SLP157 T11111144
Loading
Personal Weather Stations






























Interactive Weather Map New forecast layout! Learn more

10-Day Weather Forecast

Advertisements
Track Severe Weather on mobile